sensor_id;sensor_type;location;lat;lon;timestamp;temperature;humidity
8408;DHT22;4241;48.452;9.216;2023-06-26T19:45:10;22.50;64.30
8408;DHT22;4241;48.452;9.216;2023-06-26T19:47:37;22.40;64.40
8408;DHT22;4241;48.452;9.216;2023-06-26T19:50:06;22.40;65.20
8408;DHT22;4241;48.452;9.216;2023-06-26T19:52:33;22.40;65.10
8408;DHT22;4241;48.452;9.216;2023-06-26T19:55:00;22.40;65.00
8408;DHT22;4241;48.452;9.216;2023-06-26T19:57:28;22.50;64.90
8408;DHT22;4241;48.452;9.216;2023-06-26T19:59:55;22.50;64.30
8408;DHT22;4241;48.452;9.216;2023-06-26T20:02:23;22.50;64.40
8408;DHT22;4241;48.452;9.216;2023-06-26T20:04:50;22.50;65.10
8408;DHT22;4241;48.452;9.216;2023-06-26T20:07:17;22.50;64.60
8408;DHT22;4241;48.452;9.216;2023-06-26T20:09:43;22.50;64.80
8408;DHT22;4241;48.452;9.216;2023-06-26T20:12:10;22.40;65.50
8408;DHT22;4241;48.452;9.216;2023-06-26T20:14:37;22.40;65.40
8408;DHT22;4241;48.452;9.216;2023-06-26T20:17:04;22.40;65.30
8408;DHT22;4241;48.452;9.216;2023-06-26T20:19:32;22.20;66.10
8408;DHT22;4241;48.452;9.216;2023-06-26T20:21:59;22.30;65.60
8408;DHT22;4241;48.452;9.216;2023-06-26T20:29:22;22.10;67.50
8408;DHT22;4241;48.452;9.216;2023-06-26T20:31:49;22.10;66.40
8408;DHT22;4241;48.452;9.216;2023-06-26T20:34:16;22.00;65.90
8408;DHT22;4241;48.452;9.216;2023-06-26T20:36:45;22.00;66.20
8408;DHT22;4241;48.452;9.216;2023-06-26T20:39:11;22.10;64.90
8408;DHT22;4241;48.452;9.216;2023-06-26T20:41:39;21.90;66.00
8408;DHT22;4241;48.452;9.216;2023-06-26T20:44:06;22.00;65.50
8408;DHT22;4241;48.452;9.216;2023-06-26T20:46:33;22.00;66.30
8408;DHT22;4241;48.452;9.216;2023-06-26T20:49:03;23.00;67.20
8408;DHT22;4241;48.452;9.216;2023-06-26T20:51:30;21.80;66.10
8408;DHT22;4241;48.452;9.216;2023-06-26T20:53:59;21.90;66.00
8408;DHT22;4241;48.452;9.216;2023-06-26T20:58:54;21.90;65.20
8408;DHT22;4241;48.452;9.216;2023-06-26T21:01:21;21.80;65.70
8408;DHT22;4241;48.452;9.216;2023-06-26T21:03:47;21.80;65.80
8408;DHT22;4241;48.452;9.216;2023-06-26T21:08:42;21.60;65.40
8408;DHT22;4241;48.452;9.216;2023-06-26T21:11:10;21.60;65.50
8408;DHT22;4241;48.452;9.216;2023-06-26T21:13:37;21.70;64.80
8408;DHT22;4241;48.452;9.216;2023-06-26T21:16:04;21.60;65.30
8408;DHT22;4241;48.452;9.216;2023-06-26T21:18:31;21.50;65.50
8408;DHT22;4241;48.452;9.216;2023-06-26T21:23:25;21.40;65.50
8408;DHT22;4241;48.452;9.216;2023-06-26T21:25:52;21.30;65.90
8408;DHT22;4241;48.452;9.216;2023-06-26T21:28:20;21.40;66.20
8408;DHT22;4241;48.452;9.216;2023-06-26T21:30:47;21.40;66.30
8408;DHT22;4241;48.452;9.216;2023-06-26T21:33:14;21.30;66.40
8408;DHT22;4241;48.452;9.216;2023-06-26T21:35:41;21.40;66.50
8408;DHT22;4241;48.452;9.216;2023-06-26T21:38:08;21.30;66.90
8408;DHT22;4241;48.452;9.216;2023-06-26T21:40:35;21.30;66.90
8408;DHT22;4241;48.452;9.216;2023-06-26T21:43:02;21.20;67.20
8408;DHT22;4241;48.452;9.216;2023-06-26T21:45:30;21.10;67.80
8408;DHT22;4241;48.452;9.216;2023-06-26T21:47:57;21.00;68.50
8408;DHT22;4241;48.452;9.216;2023-06-26T21:50:24;21.00;68.60
8408;DHT22;4241;48.452;9.216;2023-06-26T21:52:51;20.80;69.00
8408;DHT22;4241;48.452;9.216;2023-06-26T21:57:44;20.80;69.20
8408;DHT22;4241;48.452;9.216;2023-06-26T22:00:12;20.60;69.60
8408;DHT22;4241;48.452;9.216;2023-06-26T22:02:41;20.60;70.40
8408;DHT22;4241;48.452;9.216;2023-06-26T22:05:08;20.60;70.50
8408;DHT22;4241;48.452;9.216;2023-06-26T22:07:36;20.50;70.40
8408;DHT22;4241;48.452;9.216;2023-06-26T22:10:03;20.40;70.20
8408;DHT22;4241;48.452;9.216;2023-06-26T22:12:31;20.40;70.30
8408;DHT22;4241;48.452;9.216;2023-06-26T22:14:58;20.40;70.60
8408;DHT22;4241;48.452;9.216;2023-06-26T22:17:29;20.30;71.80
8408;DHT22;4241;48.452;9.216;2023-06-26T22:19:58;20.10;72.00
8408;DHT22;4241;48.452;9.216;2023-06-26T22:24:52;20.00;73.40
8408;DHT22;4241;48.452;9.216;2023-06-26T22:27:19;20.10;73.40
8408;DHT22;4241;48.452;9.216;2023-06-26T22:29:46;20.00;73.30
8408;DHT22;4241;48.452;9.216;2023-06-26T22:32:14;20.10;72.90
8408;DHT22;4241;48.452;9.216;2023-06-26T22:34:40;20.00;73.10
8408;DHT22;4241;48.452;9.216;2023-06-26T22:37:09;20.00;72.90
8408;DHT22;4241;48.452;9.216;2023-06-26T22:39:35;20.00;72.50
8408;DHT22;4241;48.452;9.216;2023-06-26T22:42:04;20.00;73.30
8408;DHT22;4241;48.452;9.216;2023-06-26T22:44:31;19.90;73.30
8408;DHT22;4241;48.452;9.216;2023-06-26T22:46:58;19.80;73.80
8408;DHT22;4241;48.452;9.216;2023-06-26T22:49:25;19.70;73.30
8408;DHT22;4241;48.452;9.216;2023-06-26T22:51:51;19.80;73.50
8408;DHT22;4241;48.452;9.216;2023-06-26T22:54:19;19.90;73.10
8408;DHT22;4241;48.452;9.216;2023-06-26T22:59:13;19.80;73.10
8408;DHT22;4241;48.452;9.216;2023-06-26T23:01:40;19.80;73.10
8408;DHT22;4241;48.452;9.216;2023-06-26T23:04:07;19.90;73.10
8408;DHT22;4241;48.452;9.216;2023-06-26T23:06:34;19.80;73.00
8408;DHT22;4241;48.452;9.216;2023-06-26T23:09:01;19.70;73.40
8408;DHT22;4241;48.452;9.216;2023-06-26T23:11:29;19.70;73.80
8408;DHT22;4241;48.452;9.216;2023-06-26T23:13:56;19.70;74.30
8408;DHT22;4241;48.452;9.216;2023-06-26T23:16:23;19.70;74.50
8408;DHT22;4241;48.452;9.216;2023-06-26T23:21:17;19.60;74.50
8408;DHT22;4241;48.452;9.216;2023-06-26T23:28:41;19.50;75.40
8408;DHT22;4241;48.452;9.216;2023-06-26T23:31:07;19.50;76.20
8408;DHT22;4241;48.452;9.216;2023-06-26T23:36:03;19.40;76.60
8408;DHT22;4241;48.452;9.216;2023-06-26T23:38:30;19.40;78.20
8408;DHT22;4241;48.452;9.216;2023-06-26T23:41:00;19.20;78.30
8408;DHT22;4241;48.452;9.216;2023-06-26T23:43:27;19.20;78.20
8408;DHT22;4241;48.452;9.216;2023-06-26T23:45:56;19.30;79.40
8408;DHT22;4241;48.452;9.216;2023-06-26T23:50:49;19.20;79.10
8408;DHT22;4241;48.452;9.216;2023-06-26T23:58:11;19.10;81.30
